Time;durP1;ratioP1;P1;durP2;ratioP2;P2;SDS_P1;SDS_P2;PMS_P1;PMS_P2;Temp;Humidity;BMP_temperature;BMP_pressure;BME280_temperature;BME280_humidity;BME280_pressure;Samples;Min_cycle;Max_cycle;Signal;HPM_P1;HPM_P2
2021/06/23 00:00:27;;;;;;;13.05;8.05;;;12.70;99.90;;;;;;4817933;29;20040;-80
2021/06/23 00:02:54;;;;;;;12.30;8.60;;;12.70;99.90;;;;;;4808916;29;20910;-80
2021/06/23 00:05:23;;;;;;;14.63;9.32;;;12.70;99.90;;;;;;4823135;29;20061;-80
2021/06/23 00:07:50;;;;;;;14.82;9.63;;;12.70;99.90;;;;;;4807418;29;20053;-80
2021/06/23 00:10:18;;;;;;;10.68;7.85;;;12.70;99.90;;;;;;4815977;29;20105;-80
2021/06/23 00:12:46;;;;;;;12.98;7.75;;;12.70;99.90;;;;;;4809614;29;20054;-80
2021/06/23 00:15:15;;;;;;;11.52;7.75;;;12.70;99.90;;;;;;4830774;29;20054;-79
2021/06/23 00:17:42;;;;;;;9.65;7.82;;;12.70;99.90;;;;;;4823673;29;20046;-76
2021/06/23 00:20:10;;;;;;;12.43;8.70;;;12.70;99.90;;;;;;4793695;29;20042;-76
2021/06/23 00:22:36;;;;;;;14.68;8.55;;;12.70;99.90;;;;;;4806651;29;20734;-77
2021/06/23 00:25:03;;;;;;;15.93;8.13;;;12.70;99.90;;;;;;4808104;29;20257;-77
2021/06/23 00:27:30;;;;;;;12.02;7.00;;;12.70;99.90;;;;;;4805564;29;20605;-77
2021/06/23 00:30:07;;;;;;;10.60;7.30;;;12.70;99.90;;;;;;4808279;29;20053;-77
2021/06/23 00:32:35;;;;;;;11.48;8.07;;;12.80;99.90;;;;;;4808916;29;20045;-76
2021/06/23 00:35:03;;;;;;;16.75;9.43;;;12.80;99.90;;;;;;4784948;29;20500;-77
2021/06/23 00:37:29;;;;;;;13.40;8.43;;;12.90;99.90;;;;;;4809557;29;20678;-77
2021/06/23 00:39:56;;;;;;;11.90;8.48;;;12.90;99.90;;;;;;4792622;29;20047;-77
2021/06/23 01:05:05;;;;;;;10.43;7.38;;;12.90;99.90;;;;;;4779570;29;20059;-76
2021/06/23 01:07:33;;;;;;;12.90;8.45;;;12.90;99.90;;;;;;4763690;29;20371;-76
2021/06/23 01:10:09;;;;;;;13.60;8.93;;;12.90;99.90;;;;;;4764823;29;20043;-76
2021/06/23 01:13:07;;;;;;;9.07;7.65;;;12.90;99.90;;;;;;4781533;29;20482;-78
2021/06/23 01:15:36;;;;;;;12.40;7.88;;;12.90;99.90;;;;;;4780191;29;20079;-76
2021/06/23 01:18:04;;;;;;;12.77;7.43;;;13.00;99.90;;;;;;4769761;29;20051;-76
2021/06/23 01:20:32;;;;;;;9.60;7.35;;;12.90;99.90;;;;;;4766023;29;20070;-76
2021/06/23 01:22:58;;;;;;;12.60;8.45;;;13.00;99.90;;;;;;4782580;29;20482;-76
2021/06/23 01:25:25;;;;;;;12.73;7.68;;;13.00;99.90;;;;;;4754101;29;20051;-76
2021/06/23 01:27:52;;;;;;;14.05;8.07;;;13.00;99.90;;;;;;4780735;29;20400;-76
2021/06/23 01:30:19;;;;;;;9.68;7.53;;;12.90;99.90;;;;;;4744968;29;20043;-76
2021/06/23 01:32:56;;;;;;;9.40;7.32;;;12.90;99.90;;;;;;4784448;29;20460;-76
2021/06/23 01:35:22;;;;;;;12.40;7.78;;;12.90;99.90;;;;;;4766829;29;20058;-76
2021/06/23 01:37:49;;;;;;;11.18;7.38;;;12.80;99.90;;;;;;4770240;29;20414;-76
2021/06/23 01:40:16;;;;;;;10.65;7.65;;;12.90;99.90;;;;;;4786900;29;20055;-76
2021/06/23 01:42:43;;;;;;;10.88;7.10;;;12.90;99.90;;;;;;4785995;29;20416;-76
2021/06/23 01:45:10;;;;;;;12.93;8.02;;;12.90;99.90;;;;;;4770352;29;20047;-76
2021/06/23 01:47:37;;;;;;;8.73;6.78;;;12.90;99.90;;;;;;4757611;29;20066;-76
2021/06/23 01:50:05;;;;;;;10.38;6.25;;;12.90;99.90;;;;;;4780591;29;20063;-76
2021/06/23 01:52:44;;;;;;;12.75;7.18;;;12.90;99.90;;;;;;4773626;29;20054;-76
2021/06/23 01:55:27;;;;;;;11.82;6.93;;;12.90;99.90;;;;;;4770047;29;20039;-76
2021/06/23 01:58:07;;;;;;;13.25;7.38;;;12.90;99.90;;;;;;4767184;29;20055;-76
2021/06/23 02:01:16;;;;;;;8.98;5.88;;;12.90;99.90;;;;;;4779773;29;20043;-76
2021/06/23 02:03:54;;;;;;;8.90;6.28;;;12.90;99.90;;;;;;4779684;29;20043;-75
2021/06/23 02:06:48;;;;;;;8.82;6.28;;;12.90;99.90;;;;;;4766280;29;20032;-76
2021/06/23 02:09:36;;;;;;;9.88;5.85;;;12.90;99.90;;;;;;4783425;29;20058;-75
2021/06/23 02:12:24;;;;;;;11.63;6.18;;;12.90;99.90;;;;;;4769169;29;20051;-75
2021/06/23 02:14:57;;;;;;;10.40;6.57;;;12.90;99.90;;;;;;4767420;29;20047;-75
2021/06/23 02:17:50;;;;;;;12.07;6.68;;;12.90;99.90;;;;;;4769496;29;20048;-76
2021/06/23 02:20:32;;;;;;;14.15;7.40;;;12.90;99.90;;;;;;4781690;29;20035;-76
2021/06/23 02:23:09;;;;;;;9.52;6.72;;;12.90;99.90;;;;;;4779616;29;20046;-78
2021/06/23 02:25:38;;;;;;;11.02;7.45;;;12.90;99.90;;;;;;4751653;29;20047;-76
2021/06/23 02:28:21;;;;;;;11.80;5.88;;;12.90;99.90;;;;;;4779251;29;20051;-76
2021/06/23 02:30:50;;;;;;;9.57;6.32;;;13.00;99.90;;;;;;4787239;29;20043;-75
2021/06/23 02:33:19;;;;;;;13.20;6.93;;;13.00;99.90;;;;;;4769521;29;20062;-75
2021/06/23 02:35:52;;;;;;;11.07;6.30;;;13.00;99.90;;;;;;4770547;29;20051;-76
2021/06/23 02:38:27;;;;;;;8.43;6.43;;;13.00;99.90;;;;;;4784110;29;20043;-75
2021/06/23 02:40:57;;;;;;;10.68;7.00;;;13.00;99.90;;;;;;4756858;29;20054;-76
2021/06/23 02:43:24;;;;;;;10.07;6.60;;;13.00;99.90;;;;;;4755785;29;20058;-76
2021/06/23 02:45:54;;;;;;;9.15;6.05;;;13.00;99.90;;;;;;4768055;29;20058;-76
2021/06/23 02:48:25;;;;;;;9.20;6.38;;;13.00;99.90;;;;;;4755507;29;20046;-76
2021/06/23 02:51:23;;;;;;;9.38;7.07;;;13.00;99.90;;;;;;4759477;29;20051;-76
2021/06/23 02:53:57;;;;;;;8.95;6.38;;;13.00;99.90;;;;;;4750175;29;20043;-76
2021/06/23 02:56:46;;;;;;;7.57;6.20;;;13.00;99.90;;;;;;4766381;29;20043;-78
2021/06/23 02:59:13;;;;;;;12.40;6.60;;;13.00;99.90;;;;;;4779939;29;20042;-76
2021/06/23 03:01:40;;;;;;;10.38;6.15;;;13.00;99.90;;;;;;4781520;29;20046;-76
2021/06/23 03:04:17;;;;;;;8.98;7.18;;;13.00;99.90;;;;;;4766330;29;20069;-76
2021/06/23 03:07:07;;;;;;;10.95;6.47;;;13.00;99.90;;;;;;4778927;29;20047;-76
2021/06/23 03:09:34;;;;;;;9.00;6.20;;;13.00;99.90;;;;;;4779057;29;20066;-76
2021/06/23 03:12:18;;;;;;;13.13;6.07;;;13.00;99.90;;;;;;4754474;29;20055;-76
2021/06/23 03:15:16;;;;;;;11.07;6.63;;;13.00;99.90;;;;;;4781379;29;20054;-76
2021/06/23 03:17:44;;;;;;;11.85;7.07;;;12.90;99.90;;;;;;4764343;29;20042;-76
2021/06/23 03:20:12;;;;;;;9.13;5.85;;;12.90;99.90;;;;;;4767860;29;20076;-76
2021/06/23 03:22:43;;;;;;;12.02;6.85;;;13.00;99.90;;;;;;4783782;29;20047;-76
2021/06/23 03:25:11;;;;;;;9.70;6.45;;;12.90;99.90;;;;;;4753757;29;20063;-76
2021/06/23 03:27:38;;;;;;;10.27;6.63;;;12.90;99.90;;;;;;4782995;29;20067;-76
2021/06/23 03:30:07;;;;;;;11.20;6.57;;;12.90;99.90;;;;;;4782424;29;20583;-76
2021/06/23 03:32:33;;;;;;;11.18;6.82;;;12.90;99.90;;;;;;4756140;29;20054;-76
2021/06/23 03:35:02;;;;;;;11.77;7.05;;;12.90;99.90;;;;;;4773445;29;20487;-76
2021/06/23 03:37:28;;;;;;;10.70;6.40;;;12.90;99.90;;;;;;4783462;29;20043;-76
2021/06/23 03:39:55;;;;;;;9.85;5.90;;;12.90;99.90;;;;;;4785731;29;20518;-76
2021/06/23 03:42:22;;;;;;;8.88;5.43;;;12.90;99.90;;;;;;4766497;29;20051;-76
2021/06/23 03:44:53;;;;;;;9.73;6.57;;;12.90;99.90;;;;;;4781925;29;20521;-75
2021/06/23 03:47:22;;;;;;;8.15;6.35;;;12.90;99.90;;;;;;4782337;29;20051;-76
2021/06/23 03:49:49;;;;;;;10.27;5.95;;;13.00;99.90;;;;;;4752962;29;20043;-76
2021/06/23 03:52:16;;;;;;;7.95;6.13;;;13.00;99.90;;;;;;4753782;29;20043;-76
2021/06/23 03:54:42;;;;;;;11.75;6.15;;;13.00;99.90;;;;;;4783831;29;20043;-76
2021/06/23 03:57:09;;;;;;;9.40;6.13;;;13.10;99.90;;;;;;4783669;29;20062;-76
2021/06/23 03:59:37;;;;;;;9.48;6.30;;;13.10;99.90;;;;;;4767728;29;20047;-76
2021/06/23 04:02:05;;;;;;;8.30;5.90;;;13.10;99.90;;;;;;4784188;29;20035;-75
2021/06/23 04:04:32;;;;;;;11.43;6.55;;;13.10;99.90;;;;;;4768609;29;20055;-75
2021/06/23 04:06:59;;;;;;;7.07;5.82;;;13.10;99.90;;;;;;4788089;29;20059;-75
2021/06/23 04:09:28;;;;;;;8.63;5.80;;;13.10;99.90;;;;;;4768455;29;20051;-76
2021/06/23 04:11:59;;;;;;;9.83;5.60;;;13.10;99.90;;;;;;4759324;29;20061;-75
2021/06/23 04:14:28;;;;;;;13.23;6.70;;;13.10;99.90;;;;;;4786864;29;20406;-76
2021/06/23 04:16:57;;;;;;;12.32;6.38;;;13.10;99.90;;;;;;4786930;29;20388;-76
2021/06/23 04:19:25;;;;;;;8.68;6.35;;;13.20;99.90;;;;;;4783651;29;20052;-75
2021/06/23 04:21:58;;;;;;;8.45;5.97;;;13.20;99.90;;;;;;4771363;29;20054;-75
2021/06/23 04:24:25;;;;;;;11.27;6.50;;;13.10;99.90;;;;;;4787921;29;20058;-75
2021/06/23 04:26:53;;;;;;;9.50;6.65;;;13.10;99.90;;;;;;4773455;29;20043;-75
2021/06/23 04:29:20;;;;;;;11.32;6.00;;;13.10;99.90;;;;;;4770425;29;20106;-75
2021/06/23 04:31:51;;;;;;;10.63;5.80;;;13.00;99.90;;;;;;4774078;29;20067;-75
2021/06/23 04:34:18;;;;;;;13.40;6.25;;;13.00;99.90;;;;;;4781836;29;20133;-77
2021/06/23 04:36:49;;;;;;;10.30;6.72;;;13.10;99.90;;;;;;4780673;29;20534;-76
2021/06/23 04:39:15;;;;;;;10.52;7.20;;;13.10;99.90;;;;;;4780117;29;20434;-76
2021/06/23 04:41:58;;;;;;;12.88;7.47;;;13.00;99.90;;;;;;4767299;29;20526;-76
2021/06/23 04:44:25;;;;;;;14.07;7.50;;;13.10;99.90;;;;;;4779849;29;20048;-75
2021/06/23 04:46:52;;;;;;;19.92;11.35;;;13.10;99.90;;;;;;4783281;29;20043;-76
2021/06/23 04:49:18;;;;;;;36.85;27.88;;;13.10;99.90;;;;;;4780841;29;20051;-76
2021/06/23 04:52:13;;;;;;;17.58;11.70;;;13.10;99.90;;;;;;4780970;29;20056;-76
2021/06/23 04:54:40;;;;;;;17.98;8.80;;;13.20;99.90;;;;;;4768319;29;20056;-75
2021/06/23 04:57:08;;;;;;;10.45;6.20;;;13.20;99.90;;;;;;4782334;29;20047;-75
2021/06/23 04:59:36;;;;;;;11.85;7.00;;;13.20;99.90;;;;;;4782719;29;20039;-75
2021/06/23 05:02:03;;;;;;;9.32;5.18;;;13.20;99.90;;;;;;4754303;29;20490;-75
2021/06/23 05:04:30;;;;;;;11.40;5.28;;;13.20;99.90;;;;;;4769339;29;20050;-75
2021/06/23 05:06:57;;;;;;;12.35;5.75;;;13.20;99.90;;;;;;4783403;29;20055;-75
2021/06/23 05:09:23;;;;;;;5.85;5.20;;;13.20;99.90;;;;;;4781762;29;20063;-75
2021/06/23 05:11:50;;;;;;;6.60;5.13;;;13.30;99.90;;;;;;4787022;29;20078;-75
2021/06/23 05:14:16;;;;;;;7.38;4.47;;;13.30;99.90;;;;;;4739367;29;20043;-75
2021/06/23 05:16:46;;;;;;;7.43;5.43;;;13.40;99.90;;;;;;4786914;29;20043;-75
2021/06/23 05:19:14;;;;;;;10.07;4.90;;;13.50;99.90;;;;;;4752395;29;20435;-75
2021/06/23 05:21:40;;;;;;;11.60;6.18;;;13.50;99.90;;;;;;4764015;29;20948;-75
2021/06/23 05:24:07;;;;;;;9.10;5.88;;;13.60;99.90;;;;;;4784404;29;20059;-75
2021/06/23 05:26:34;;;;;;;9.43;4.95;;;13.60;99.90;;;;;;4781100;29;20044;-75
2021/06/23 05:29:00;;;;;;;7.18;5.20;;;13.60;99.90;;;;;;4765217;29;20050;-75
2021/06/23 05:31:27;;;;;;;9.75;5.97;;;13.70;99.90;;;;;;4781083;29;20050;-75
2021/06/23 05:33:53;;;;;;;8.10;5.13;;;13.70;99.90;;;;;;4780689;29;20051;-75
2021/06/23 05:36:20;;;;;;;10.35;5.45;;;13.70;99.90;;;;;;4764643;29;20062;-75
2021/06/23 05:38:47;;;;;;;7.82;5.00;;;13.80;99.90;;;;;;4780987;29;20054;-75
2021/06/23 05:41:14;;;;;;;8.30;5.15;;;13.80;99.90;;;;;;4782597;29;20063;-75
2021/06/23 05:43:40;;;;;;;6.95;5.28;;;13.90;99.90;;;;;;4765877;29;20044;-75
2021/06/23 05:46:07;;;;;;;11.40;5.10;;;13.90;99.90;;;;;;4766944;29;20064;-75
2021/06/23 05:48:33;;;;;;;12.80;5.97;;;14.00;99.90;;;;;;4782214;29;20050;-75
2021/06/23 05:51:00;;;;;;;10.55;4.72;;;14.10;99.90;;;;;;4766913;29;20051;-75
2021/06/23 05:53:26;;;;;;;9.43;4.63;;;14.10;99.90;;;;;;4785055;29;20055;-75
2021/06/23 05:55:55;;;;;;;8.48;4.63;;;14.30;99.90;;;;;;4783052;29;20514;-75
2021/06/23 05:58:23;;;;;;;6.05;4.03;;;14.40;99.90;;;;;;4780994;29;20062;-75
2021/06/23 06:00:49;;;;;;;11.15;4.07;;;14.50;99.90;;;;;;4769425;29;20039;-75
2021/06/23 06:03:16;;;;;;;14.85;4.22;;;14.60;99.90;;;;;;4786049;29;20471;-75
2021/06/23 06:05:43;;;;;;;13.40;3.95;;;14.80;99.90;;;;;;4785995;29;20068;-75
2021/06/23 06:08:11;;;;;;;7.88;3.72;;;14.90;99.90;;;;;;4768003;29;20051;-75
2021/06/23 06:10:37;;;;;;;11.65;3.38;;;15.00;99.90;;;;;;4752515;29;20047;-75
2021/06/23 06:13:05;;;;;;;7.35;3.25;;;15.10;99.90;;;;;;4771915;29;20054;-75
2021/06/23 06:15:33;;;;;;;8.70;3.10;;;15.20;99.90;;;;;;4784452;29;20517;-75
2021/06/23 06:18:04;;;;;;;7.90;3.40;;;15.20;99.90;;;;;;4784630;29;20503;-78
2021/06/23 06:20:32;;;;;;;6.70;2.60;;;15.30;99.90;;;;;;4778190;29;20617;-78
2021/06/23 06:22:59;;;;;;;8.30;2.70;;;15.40;99.90;;;;;;4782580;29;20047;-78
2021/06/23 06:25:27;;;;;;;6.93;2.50;;;15.50;99.90;;;;;;4769903;29;20406;-78
2021/06/23 06:27:53;;;;;;;10.00;3.53;;;15.60;99.90;;;;;;4778220;29;20406;-78
2021/06/23 06:30:22;;;;;;;7.50;2.80;;;15.80;99.90;;;;;;4765167;29;20050;-79
2021/06/23 06:32:49;;;;;;;11.02;2.83;;;15.80;99.90;;;;;;4784181;29;20047;-78
2021/06/23 06:35:16;;;;;;;8.48;2.50;;;15.90;99.90;;;;;;4779754;29;20043;-74
2021/06/23 06:37:43;;;;;;;7.95;2.67;;;15.90;99.50;;;;;;4780293;29;20421;-75
2021/06/23 06:40:10;;;;;;;11.55;3.08;;;15.70;98.90;;;;;;4765680;29;20564;-75
2021/06/23 06:42:36;;;;;;;7.47;3.28;;;15.70;98.90;;;;;;4782551;29;20050;-75
2021/06/23 06:45:05;;;;;;;7.65;2.38;;;15.70;99.20;;;;;;4782493;29;20057;-75
2021/06/23 06:47:35;;;;;;;6.05;2.20;;;15.70;99.40;;;;;;4782012;29;20042;-75
2021/06/23 06:50:03;;;;;;;5.47;2.17;;;15.70;99.60;;;;;;4766034;29;20498;-74
2021/06/23 06:52:29;;;;;;;6.07;3.08;;;15.80;99.80;;;;;;4780207;29;20039;-75
2021/06/23 06:54:56;;;;;;;7.70;2.40;;;15.80;99.10;;;;;;4768469;29;20399;-75
2021/06/23 06:57:22;;;;;;;8.50;2.60;;;15.90;99.40;;;;;;4784777;29;20043;-75
2021/06/23 06:59:49;;;;;;;8.68;2.53;;;16.00;99.20;;;;;;4782407;29;20062;-75
2021/06/23 07:02:15;;;;;;;7.72;2.33;;;16.10;99.30;;;;;;4784043;29;20047;-75
2021/06/23 07:04:42;;;;;;;5.03;1.80;;;16.10;99.20;;;;;;4783427;29;20081;-75
2021/06/23 07:07:08;;;;;;;9.02;2.75;;;16.20;99.10;;;;;;4751376;29;20047;-75
2021/06/23 07:09:35;;;;;;;7.45;2.42;;;16.30;99.20;;;;;;4779093;29;20059;-76
2021/06/23 07:12:02;;;;;;;5.95;1.65;;;16.30;98.40;;;;;;4755441;29;20483;-76
2021/06/23 07:14:29;;;;;;;5.95;1.90;;;16.30;98.20;;;;;;4784351;29;20046;-75
2021/06/23 07:16:55;;;;;;;5.28;2.05;;;16.30;98.30;;;;;;4781680;29;20070;-74
2021/06/23 07:19:22;;;;;;;8.68;2.53;;;16.30;98.20;;;;;;4767006;29;20063;-74
2021/06/23 07:21:48;;;;;;;6.95;2.15;;;16.40;98.20;;;;;;4783591;29;20054;-74
2021/06/23 07:24:18;;;;;;;6.75;1.88;;;16.50;98.50;;;;;;4783309;29;20495;-75
2021/06/23 07:26:52;;;;;;;7.80;3.70;;;16.50;97.60;;;;;;4781340;29;20047;-75
2021/06/23 07:29:19;;;;;;;12.32;4.78;;;16.50;97.90;;;;;;4781667;29;20047;-75
2021/06/23 07:32:23;;;;;;;11.38;4.53;;;16.60;97.50;;;;;;4782066;29;20095;-75
2021/06/23 07:37:12;;;;;;;8.93;2.30;;;16.70;97.40;;;;;;4782495;29;20050;-75
2021/06/23 07:39:38;;;;;;;7.05;2.42;;;16.80;97.20;;;;;;4781251;29;20499;-77
2021/06/23 07:42:07;;;;;;;9.95;5.00;;;16.80;97.20;;;;;;4785048;29;20027;-76
2021/06/23 07:44:55;;;;;;;7.82;3.83;;;16.90;97.10;;;;;;4784985;29;20388;-77
2021/06/23 07:47:25;;;;;;;8.60;3.15;;;17.00;96.80;;;;;;4767753;29;20043;-77
2021/06/23 07:49:52;;;;;;;8.85;2.53;;;17.10;96.90;;;;;;4779896;29;20408;-77
2021/06/23 08:10:48;;;;;;;8.93;2.50;;;17.50;94.80;;;;;;4783018;29;20051;-77
2021/06/23 08:13:16;;;;;;;9.00;1.75;;;17.60;94.70;;;;;;4768090;29;20043;-78
2021/06/23 08:15:45;;;;;;;5.35;1.50;;;17.70;94.60;;;;;;4782633;29;20036;-77
2021/06/23 08:18:14;;;;;;;7.47;1.63;;;17.80;94.90;;;;;;4782067;29;20101;-77
2021/06/23 08:20:41;;;;;;;6.78;1.60;;;17.90;94.70;;;;;;4780811;29;20050;-77
2021/06/23 08:23:08;;;;;;;10.25;2.05;;;17.90;94.10;;;;;;4785420;29;20043;-75
2021/06/23 08:25:35;;;;;;;10.40;1.67;;;17.80;93.70;;;;;;4783487;29;20059;-75
2021/06/23 08:28:02;;;;;;;11.10;1.52;;;17.70;94.00;;;;;;4783094;29;20051;-75
2021/06/23 08:30:30;;;;;;;8.27;1.38;;;17.80;94.10;;;;;;4784892;29;20050;-75
2021/06/23 08:32:58;;;;;;;9.13;1.63;;;18.10;93.60;;;;;;4785006;29;20039;-75
2021/06/23 08:35:26;;;;;;;4.45;0.98;;;18.40;93.20;;;;;;4768862;29;20054;-75
2021/06/23 08:37:54;;;;;;;8.60;1.13;;;18.70;93.10;;;;;;4783283;29;20043;-75
2021/06/23 08:40:23;;;;;;;9.95;2.03;;;18.90;92.90;;;;;;4785586;29;20046;-75
2021/06/23 08:42:49;;;;;;;6.82;1.23;;;18.90;92.40;;;;;;4786011;29;20042;-75
2021/06/23 08:45:16;;;;;;;6.35;1.02;;;19.00;92.40;;;;;;4785553;29;20067;-75
2021/06/23 08:47:46;;;;;;;5.85;0.90;;;18.90;92.10;;;;;;4782685;29;20530;-75
2021/06/23 08:50:15;;;;;;;8.27;1.40;;;18.90;92.10;;;;;;4784844;29;20044;-76
2021/06/23 08:52:42;;;;;;;8.95;1.90;;;18.90;91.40;;;;;;4765949;29;20055;-76
2021/06/23 08:55:09;;;;;;;6.50;1.17;;;18.90;91.20;;;;;;4780959;29;20050;-75
2021/06/23 08:57:37;;;;;;;6.03;0.85;;;19.00;91.20;;;;;;4781580;29;20047;-76
2021/06/23 09:00:08;;;;;;;9.23;1.73;;;19.10;90.90;;;;;;4778535;29;20050;-75
2021/06/23 09:02:35;;;;;;;7.35;1.38;;;19.10;90.20;;;;;;4764385;29;20039;-75
2021/06/23 09:05:06;;;;;;;11.40;6.68;;;19.10;89.60;;;;;;4783100;29;20059;-76
2021/06/23 09:07:48;;;;;;;5.65;1.77;;;19.20;89.60;;;;;;4780082;29;20058;-75
2021/06/23 09:10:23;;;;;;;6.68;3.03;;;19.30;90.00;;;;;;4782003;29;20139;-75
2021/06/23 09:13:08;;;;;;;7.78;1.23;;;19.40;89.50;;;;;;4765792;29;20503;-74
2021/06/23 09:15:39;;;;;;;6.78;1.00;;;19.60;88.80;;;;;;4780690;29;20502;-75
2021/06/23 09:18:17;;;;;;;4.93;1.13;;;19.70;88.90;;;;;;4762864;29;20050;-74
2021/06/23 09:20:45;;;;;;;4.03;1.02;;;20.00;88.80;;;;;;4779382;29;20031;-74
2021/06/23 09:23:12;;;;;;;6.32;1.05;;;20.20;88.30;;;;;;4778651;29;20051;-74
2021/06/23 09:25:44;;;;;;;3.00;0.60;;;20.10;87.90;;;;;;4778372;29;20101;-74
2021/06/23 09:28:18;;;;;;;4.80;0.82;;;20.10;87.80;;;;;;4779043;29;20912;-75
2021/06/23 09:30:46;;;;;;;4.50;0.90;;;20.10;86.10;;;;;;4779635;29;20047;-74
2021/06/23 09:33:19;;;;;;;9.45;1.40;;;20.10;84.80;;;;;;4778304;29;20031;-74
2021/06/23 09:35:56;;;;;;;7.38;0.90;;;20.20;82.10;;;;;;4763379;29;20039;-74
2021/06/23 09:38:56;;;;;;;6.18;0.90;;;20.30;81.70;;;;;;4776285;29;20506;-75
2021/06/23 09:41:27;;;;;;;4.07;1.17;;;20.30;81.70;;;;;;4776913;29;20054;-75
2021/06/23 09:44:00;;;;;;;8.13;1.30;;;20.40;80.10;;;;;;4778728;29;20953;-75
2021/06/23 09:46:32;;;;;;;3.67;0.60;;;20.40;81.10;;;;;;4784036;29;20299;-76
2021/06/23 09:49:09;;;;;;;5.25;0.95;;;20.40;80.60;;;;;;4781013;29;20064;-74
2021/06/23 09:52:13;;;;;;;4.07;0.90;;;20.30;80.70;;;;;;4784290;29;20058;-76
2021/06/23 09:54:52;;;;;;;6.30;1.20;;;20.30;81.10;;;;;;4753548;30;20357;-75
2021/06/23 09:57:19;;;;;;;5.63;1.73;;;20.30;79.50;;;;;;4785839;29;20556;-76
2021/06/23 09:59:50;;;;;;;4.63;1.42;;;20.20;79.90;;;;;;4761449;29;20043;-76
2021/06/23 10:02:21;;;;;;;4.57;1.30;;;20.10;80.60;;;;;;4778563;29;20042;-75
2021/06/23 10:04:47;;;;;;;6.68;1.23;;;20.00;81.00;;;;;;4780689;29;20065;-78
2021/06/23 10:07:39;;;;;;;7.13;0.90;;;19.90;78.60;;;;;;4781814;29;20043;-79
2021/06/23 10:10:08;;;;;;;6.15;1.20;;;19.70;79.20;;;;;;4783171;29;20050;-79
2021/06/23 10:12:35;;;;;;;4.47;1.00;;;19.80;80.00;;;;;;4780290;29;20073;-78
2021/06/23 10:15:01;;;;;;;4.32;0.77;;;20.00;80.50;;;;;;4781089;29;20537;-79
2021/06/23 10:17:28;;;;;;;4.50;0.90;;;20.20;80.30;;;;;;4777815;29;20043;-78
2021/06/23 10:19:56;;;;;;;5.63;1.30;;;20.50;79.60;;;;;;4776872;29;20051;-78
2021/06/23 10:22:23;;;;;;;8.10;1.80;;;20.60;78.20;;;;;;4779071;29;20039;-78
2021/06/23 10:24:52;;;;;;;8.80;2.40;;;20.70;77.70;;;;;;4764381;29;20046;-78
2021/06/23 10:27:21;;;;;;;9.20;3.33;;;20.90;77.60;;;;;;4780680;29;20039;-79
2021/06/23 10:29:52;;;;;;;6.82;1.60;;;21.10;77.50;;;;;;4779792;29;20058;-78
2021/06/23 10:32:19;;;;;;;5.07;1.25;;;21.30;76.40;;;;;;4778936;29;20086;-78
2021/06/23 10:34:45;;;;;;;5.25;1.00;;;21.50;76.20;;;;;;4763670;29;20039;-79
2021/06/23 10:37:14;;;;;;;4.22;1.35;;;21.70;73.90;;;;;;4778889;29;20051;-76
2021/06/23 10:39:42;;;;;;;4.80;0.98;;;21.70;73.30;;;;;;4763524;29;20065;-78
2021/06/23 10:42:09;;;;;;;6.18;0.77;;;21.70;73.10;;;;;;4781003;29;20048;-80
2021/06/23 10:44:41;;;;;;;4.68;0.85;;;21.70;73.00;;;;;;4785449;29;20058;-80
2021/06/23 10:47:11;;;;;;;7.75;1.42;;;21.70;72.10;;;;;;4785697;29;20495;-80
2021/06/23 10:49:40;;;;;;;7.82;1.50;;;21.70;72.30;;;;;;4752647;29;20043;-80
2021/06/23 10:52:22;;;;;;;5.22;0.90;;;21.80;71.70;;;;;;4768158;29;20051;-79
2021/06/23 10:55:13;;;;;;;5.88;0.70;;;21.80;72.90;;;;;;4784686;29;20055;-81
2021/06/23 10:57:44;;;;;;;8.03;1.00;;;22.10;72.00;;;;;;4784672;29;20396;-81
2021/06/23 11:00:11;;;;;;;7.32;1.17;;;22.50;72.00;;;;;;4753985;29;20453;-81
2021/06/23 11:02:41;;;;;;;4.88;0.98;;;22.80;71.10;;;;;;4785016;29;20063;-82
2021/06/23 11:05:13;;;;;;;7.40;1.50;;;23.10;70.10;;;;;;4783830;29;20051;-82
2021/06/23 11:07:41;;;;;;;4.63;0.77;;;23.20;67.60;;;;;;4784134;29;20051;-80
2021/06/23 11:10:14;;;;;;;4.10;1.13;;;23.10;67.90;;;;;;4784971;29;20065;-80
2021/06/23 11:12:47;;;;;;;6.68;0.80;;;23.20;68.60;;;;;;4786947;29;20054;-81
2021/06/23 11:15:31;;;;;;;3.60;0.68;;;23.40;68.50;;;;;;4785655;29;20504;-81
2021/06/23 11:18:22;;;;;;;3.70;0.77;;;23.70;67.70;;;;;;4785355;29;20403;-82
2021/06/23 11:21:19;;;;;;;5.32;0.77;;;24.10;67.20;;;;;;4787457;29;20054;-81
2021/06/23 11:23:55;;;;;;;4.78;1.00;;;24.10;65.20;;;;;;4786340;29;20046;-80
2021/06/23 11:26:22;;;;;;;3.60;0.70;;;24.10;64.40;;;;;;4789361;29;20054;-86
2021/06/23 11:29:08;;;;;;;4.82;0.82;;;24.10;63.10;;;;;;4785536;29;20085;-80
2021/06/23 11:32:03;;;;;;;5.53;0.70;;;24.20;64.00;;;;;;4776310;29;20051;-83
2021/06/23 11:34:53;;;;;;;3.22;0.68;;;24.20;63.70;;;;;;4786318;29;20526;-85
2021/06/23 11:37:22;;;;;;;2.88;0.80;;;24.30;63.60;;;;;;4781635;29;20043;-82
2021/06/23 11:39:50;;;;;;;3.95;0.93;;;24.40;62.10;;;;;;4784782;29;21246;-81
2021/06/23 11:42:18;;;;;;;6.15;1.00;;;24.40;61.50;;;;;;4777126;29;20406;-82
2021/06/23 11:44:45;;;;;;;5.00;1.10;;;24.40;61.40;;;;;;4781114;29;20141;-82
2021/06/23 11:47:12;;;;;;;4.70;0.70;;;24.50;62.20;;;;;;4771023;29;20050;-81
2021/06/23 11:49:39;;;;;;;4.65;1.30;;;24.50;62.50;;;;;;4786610;29;20487;-81
2021/06/23 11:52:26;;;;;;;5.13;0.73;;;24.20;61.00;;;;;;4790976;29;20066;-82
2021/06/23 11:54:53;;;;;;;3.60;0.82;;;24.00;61.70;;;;;;4766357;29;20166;-80
2021/06/23 11:57:20;;;;;;;4.28;0.75;;;24.00;61.60;;;;;;4768157;29;20637;-79
2021/06/23 11:59:48;;;;;;;6.88;1.08;;;24.30;61.90;;;;;;4781350;29;20416;-79
2021/06/23 12:02:14;;;;;;;5.00;0.80;;;24.80;62.00;;;;;;4782134;29;20047;-79
2021/06/23 12:04:41;;;;;;;3.80;1.00;;;25.10;61.00;;;;;;4781774;29;20052;-79
2021/06/23 12:07:07;;;;;;;6.75;1.00;;;25.00;59.80;;;;;;4783597;29;20053;-79
2021/06/23 12:09:34;;;;;;;4.47;0.90;;;24.80;59.50;;;;;;4767611;29;20043;-79
2021/06/23 12:12:00;;;;;;;5.53;1.00;;;24.70;60.50;;;;;;4754829;29;20059;-79
2021/06/23 12:14:27;;;;;;;3.80;1.02;;;24.80;60.90;;;;;;4768354;29;20395;-79
2021/06/23 12:16:54;;;;;;;5.38;0.80;;;24.90;59.70;;;;;;4769650;29;20047;-79
2021/06/23 12:19:20;;;;;;;3.72;0.75;;;25.30;59.90;;;;;;4754431;29;20066;-79
2021/06/23 12:21:47;;;;;;;4.95;0.80;;;25.40;59.00;;;;;;4785492;29;20383;-79
2021/06/23 12:24:13;;;;;;;4.50;1.00;;;25.30;58.60;;;;;;4782047;29;20035;-78
2021/06/23 12:26:40;;;;;;;4.43;1.13;;;25.10;59.10;;;;;;4768238;29;20051;-79
2021/06/23 12:29:06;;;;;;;3.85;0.90;;;25.00;59.10;;;;;;4755260;29;20055;-79
2021/06/23 12:31:33;;;;;;;5.63;0.90;;;24.80;59.20;;;;;;4782229;29;20039;-79
2021/06/23 12:33:59;;;;;;;2.50;0.50;;;24.70;60.10;;;;;;4766450;29;20106;-80
2021/06/23 12:36:26;;;;;;;6.32;0.70;;;24.60;60.80;;;;;;4767019;29;20039;-79
2021/06/23 12:38:52;;;;;;;7.70;1.50;;;24.60;60.80;;;;;;4763754;29;20426;-79
2021/06/23 12:41:19;;;;;;;8.27;1.00;;;25.00;60.10;;;;;;4783259;29;20054;-79
2021/06/23 12:43:45;;;;;;;5.43;1.20;;;25.10;59.80;;;;;;4780630;29;20047;-80
2021/06/23 12:46:12;;;;;;;7.90;1.20;;;25.10;58.70;;;;;;4752524;29;20051;-80
2021/06/23 12:48:39;;;;;;;4.28;1.00;;;24.90;59.30;;;;;;4750087;29;20047;-79
2021/06/23 12:51:07;;;;;;;6.55;0.90;;;24.80;59.40;;;;;;4768784;29;20047;-80
2021/06/23 12:53:34;;;;;;;3.50;0.95;;;24.90;58.90;;;;;;4784897;29;20070;-80
2021/06/23 12:56:00;;;;;;;3.05;0.93;;;25.10;57.90;;;;;;4769161;29;20043;-80
2021/06/23 12:58:27;;;;;;;2.60;0.60;;;25.30;58.20;;;;;;4767009;29;20055;-80
2021/06/23 13:00:53;;;;;;;3.70;1.05;;;25.40;58.00;;;;;;4769718;29;20419;-80
2021/06/23 13:03:20;;;;;;;3.58;1.10;;;25.60;57.40;;;;;;4770966;29;20047;-80
2021/06/23 13:05:48;;;;;;;3.03;0.70;;;25.60;57.20;;;;;;4756151;29;20063;-80
2021/06/23 13:08:15;;;;;;;4.40;0.80;;;25.50;57.10;;;;;;4786548;29;20078;-80
2021/06/23 13:10:42;;;;;;;3.83;0.70;;;25.30;56.60;;;;;;4766318;29;20047;-80
2021/06/23 13:13:08;;;;;;;4.20;0.90;;;24.90;57.50;;;;;;4766336;29;20043;-80
2021/06/23 13:15:37;;;;;;;2.97;0.63;;;24.70;58.00;;;;;;4771409;29;20387;-80
2021/06/23 13:18:04;;;;;;;6.72;1.10;;;24.60;58.10;;;;;;4754000;29;20608;-80
2021/06/23 13:20:34;;;;;;;3.25;0.90;;;24.50;58.80;;;;;;4768138;29;20511;-80
2021/06/23 13:23:00;;;;;;;4.32;0.80;;;24.30;59.50;;;;;;4772790;29;20754;-80
2021/06/23 13:25:27;;;;;;;2.08;0.60;;;24.20;60.40;;;;;;4772213;29;20055;-80
2021/06/23 13:27:54;;;;;;;4.13;0.70;;;24.00;60.20;;;;;;4785354;29;20069;-80
2021/06/23 13:30:21;;;;;;;3.47;0.80;;;23.80;60.30;;;;;;4783660;29;20039;-80
2021/06/23 13:32:48;;;;;;;2.38;0.70;;;23.60;61.10;;;;;;4780257;29;20059;-80
2021/06/23 13:35:16;;;;;;;3.90;0.80;;;23.40;61.90;;;;;;4784889;29;20063;-80
2021/06/23 13:37:42;;;;;;;3.50;0.85;;;23.30;61.90;;;;;;4786363;29;20043;-79
2021/06/23 13:40:09;;;;;;;4.28;1.05;;;23.20;61.80;;;;;;4737204;29;20060;-80
2021/06/23 13:42:36;;;;;;;5.35;1.10;;;23.00;61.90;;;;;;4765481;29;20502;-80